createdAt,value
2022-11-09T00:24:26.903Z,1014.14
2022-11-09T00:53:22.140Z,1014.38
2022-11-09T01:21:46.671Z,1014.8
2022-11-09T01:50:37.996Z,1014.85
2022-11-09T02:19:26.059Z,1014.9
2022-11-09T02:48:16.688Z,1014.69
2022-11-09T03:16:59.796Z,1014.61
2022-11-09T03:45:59.740Z,1014.56
2022-11-09T04:14:59.910Z,1014.31
2022-11-09T04:43:58.202Z,1014.06
2022-11-09T05:12:48.895Z,1014.26
2022-11-09T05:41:41.843Z,1014.74
2022-11-09T06:10:35.043Z,1015.47
2022-11-09T06:39:36.898Z,1015.85
2022-11-09T07:08:31.420Z,1015.66
2022-11-09T07:37:28.465Z,1015.53
2022-11-09T08:06:24.798Z,1016.02
2022-11-09T08:34:42.171Z,1015.78
2022-11-09T09:03:01.820Z,1015.73
2022-11-09T09:31:30.624Z,1015.79
2022-11-09T09:59:54.682Z,1015.91
2022-11-09T10:29:16.995Z,1015.95
2022-11-09T10:57:07.632Z,1015.84
2022-11-09T11:25:44.711Z,1015.96
2022-11-09T11:54:42.945Z,1015.95
2022-11-09T12:23:17.268Z,1016
2022-11-09T12:52:13.303Z,1016.13
2022-11-09T13:20:58.146Z,1016.3
2022-11-09T13:49:05.111Z,1016.57
2022-11-09T14:17:41.317Z,1016.82
2022-11-09T14:46:31.707Z,1017.02
2022-11-09T15:15:38.588Z,1016.75
2022-11-09T15:44:25.040Z,1016.76
2022-11-09T16:13:06.358Z,1017.31
2022-11-09T16:41:53.507Z,1017.55
2022-11-09T17:10:40.080Z,1018.06
2022-11-09T17:39:35.259Z,1018.53
2022-11-09T18:08:21.615Z,1018.71
2022-11-09T18:36:53.558Z,1019.17
2022-11-09T19:05:53.719Z,1019.57
2022-11-09T19:34:50.428Z,1019.86
2022-11-09T20:03:23.566Z,1020.23
2022-11-09T20:32:21.419Z,1020.73
2022-11-09T21:00:37.162Z,1020.97
2022-11-09T21:29:25.575Z,1021.2
2022-11-09T21:58:27.152Z,1021.54
2022-11-09T22:27:18.400Z,1021.76
2022-11-09T22:56:10.148Z,1022.28
2022-11-09T23:24:51.576Z,1022.57
2022-11-09T23:53:47.172Z,1022.9
